createdAt,value
2019-02-28T00:01:27.243Z,6.80
2019-02-28T00:03:57.963Z,7.23
2019-02-28T00:06:25.393Z,7.30
2019-02-28T00:08:53.833Z,7.40
2019-02-28T00:11:22.415Z,7.20
2019-02-28T00:13:52.310Z,7.03
2019-02-28T00:16:20.809Z,6.80
2019-02-28T00:18:49.814Z,6.87
2019-02-28T00:21:18.453Z,7.33
2019-02-28T00:23:46.397Z,7.17
2019-02-28T00:26:14.363Z,6.77
2019-02-28T00:28:42.270Z,7.53
2019-02-28T00:31:14.212Z,7.10
2019-02-28T00:33:40.906Z,7.20
2019-02-28T00:36:08.850Z,8.07
2019-02-28T00:38:37.203Z,7.63
2019-02-28T00:41:05.291Z,7.80
2019-02-28T00:43:33.206Z,7.50
2019-02-28T00:46:01.428Z,8.07
2019-02-28T00:48:29.357Z,7.63
2019-02-28T00:50:58.532Z,8.07
2019-02-28T00:53:26.938Z,8.17
2019-02-28T00:55:55.363Z,7.87
2019-02-28T00:58:23.255Z,7.07
2019-02-28T01:00:51.462Z,7.90
2019-02-28T01:03:19.828Z,7.33
2019-02-28T01:05:48.050Z,7.37
2019-02-28T01:08:19.183Z,7.80
2019-02-28T01:10:46.828Z,7.37
2019-02-28T01:13:15.105Z,7.67
2019-02-28T01:15:44.835Z,7.67
2019-02-28T01:18:13.290Z,7.57
2019-02-28T01:20:41.245Z,7.30
2019-02-28T01:23:09.186Z,7.00
2019-02-28T01:25:39.925Z,6.87
2019-02-28T01:28:06.945Z,7.30
2019-02-28T01:30:37.058Z,7.53
2019-02-28T01:33:04.670Z,8.00
2019-02-28T01:35:32.891Z,7.43
2019-02-28T01:38:01.376Z,7.83
2019-02-28T01:40:29.327Z,7.70
2019-02-28T01:42:57.703Z,7.23
2019-02-28T01:45:25.551Z,8.13
2019-02-28T01:47:53.508Z,7.63
2019-02-28T01:50:21.523Z,7.90
2019-02-28T01:52:49.695Z,7.87
2019-02-28T01:55:17.766Z,6.97
2019-02-28T01:57:46.072Z,7.83
2019-02-28T02:00:14.671Z,7.13
2019-02-28T02:02:42.933Z,6.97
2019-02-28T02:05:10.936Z,7.20
2019-02-28T02:07:39.520Z,7.73
2019-02-28T02:10:13.519Z,7.60
2019-02-28T02:12:41.885Z,7.47
2019-02-28T02:15:10.031Z,6.77
2019-02-28T02:17:38.155Z,7.30
2019-02-28T02:20:07.043Z,7.47
2019-02-28T02:22:36.637Z,8.10
2019-02-28T02:25:05.615Z,7.63
2019-02-28T02:27:35.159Z,7.17
2019-02-28T02:30:03.270Z,7.43
2019-02-28T02:32:37.076Z,7.30
2019-02-28T02:35:06.277Z,6.67
2019-02-28T02:37:31.425Z,6.60
2019-02-28T02:39:59.758Z,7.23
2019-02-28T02:42:27.642Z,7.33
2019-02-28T02:44:55.667Z,7.50
2019-02-28T02:47:24.057Z,6.73
2019-02-28T02:49:57.563Z,7.33
2019-02-28T02:52:25.852Z,7.07
2019-02-28T02:54:53.121Z,7.90
2019-02-28T02:57:21.550Z,7.93
2019-02-28T02:59:49.552Z,7.53
2019-02-28T03:02:17.900Z,7.47
2019-02-28T03:04:46.283Z,8.53
2019-02-28T03:07:22.991Z,8.10
2019-02-28T03:09:44.901Z,8.00
2019-02-28T03:12:12.729Z,7.83
2019-02-28T03:14:41.184Z,7.07
2019-02-28T03:17:11.495Z,7.53
2019-02-28T03:19:39.961Z,7.20
2019-02-28T03:22:08.382Z,6.97
2019-02-28T03:24:36.812Z,7.80
2019-02-28T03:27:04.998Z,8.00
2019-02-28T03:29:32.994Z,7.73
2019-02-28T03:32:01.342Z,7.77
2019-02-28T03:34:29.276Z,7.80
2019-02-28T03:36:57.837Z,7.57
2019-02-28T03:39:26.006Z,7.53
2019-02-28T03:41:54.535Z,7.47
2019-02-28T03:44:22.836Z,7.93
2019-02-28T03:46:50.811Z,7.40
2019-02-28T03:49:19.154Z,7.80
2019-02-28T03:51:47.570Z,8.30
2019-02-28T03:54:15.451Z,8.00
2019-02-28T03:56:51.360Z,8.37
2019-02-28T03:59:18.204Z,8.40
2019-02-28T04:01:45.475Z,7.97
2019-02-28T04:04:13.493Z,9.30
2019-02-28T04:06:41.648Z,9.37
2019-02-28T04:09:09.562Z,10.20
2019-02-28T04:11:37.373Z,11.20
2019-02-28T04:14:05.339Z,10.27
2019-02-28T04:16:33.275Z,10.87
2019-02-28T04:19:01.136Z,10.20
2019-02-28T04:21:29.098Z,11.67
2019-02-28T04:23:56.994Z,11.17
2019-02-28T04:26:25.045Z,11.10
2019-02-28T04:28:54.727Z,10.70
2019-02-28T04:31:22.806Z,10.67
2019-02-28T04:33:50.674Z,10.03
2019-02-28T04:36:18.663Z,9.87
2019-02-28T04:38:46.709Z,11.60
2019-02-28T04:41:14.809Z,12.00
2019-02-28T04:43:44.369Z,11.57
2019-02-28T04:46:12.816Z,11.03
2019-02-28T04:48:40.673Z,10.23
2019-02-28T04:51:08.554Z,10.20
2019-02-28T04:53:36.413Z,10.20
2019-02-28T04:56:04.530Z,9.90
2019-02-28T04:58:32.395Z,9.57
2019-02-28T05:01:00.306Z,8.80
2019-02-28T05:03:29.203Z,9.60
2019-02-28T05:05:57.669Z,9.10
2019-02-28T05:08:25.588Z,9.80
2019-02-28T05:10:55.949Z,8.73
2019-02-28T05:13:23.635Z,9.80
2019-02-28T05:15:51.588Z,10.00
2019-02-28T05:18:19.525Z,10.57
2019-02-28T05:20:47.417Z,9.97
2019-02-28T05:23:15.295Z,10.63
2019-02-28T05:25:43.214Z,10.73
2019-02-28T05:28:11.266Z,12.47
2019-02-28T05:30:39.179Z,11.63
2019-02-28T05:33:07.500Z,13.30
2019-02-28T05:35:35.627Z,12.80
2019-02-28T05:38:03.492Z,13.07
2019-02-28T05:40:31.306Z,14.90
2019-02-28T05:42:59.264Z,15.60
2019-02-28T05:45:27.202Z,15.27
2019-02-28T05:47:55.142Z,13.50
2019-02-28T05:50:23.130Z,39.37
2019-02-28T05:52:51.584Z,82.87
2019-02-28T05:55:24.584Z,44.53
2019-02-28T05:57:49.718Z,23.80
2019-02-28T06:00:18.845Z,21.90
2019-02-28T06:02:46.731Z,22.17
2019-02-28T06:05:14.731Z,21.20
2019-02-28T06:07:42.718Z,20.03
2019-02-28T06:10:10.892Z,19.40
2019-02-28T06:12:40.453Z,17.77
2019-02-28T06:15:08.871Z,19.47
2019-02-28T06:17:37.506Z,17.20
2019-02-28T06:20:05.986Z,18.17
2019-02-28T06:22:36.328Z,21.30
2019-02-28T06:25:04.668Z,25.40
2019-02-28T06:27:41.043Z,27.33
2019-02-28T06:30:02.442Z,25.57
2019-02-28T06:32:30.344Z,21.27
2019-02-28T06:34:59.834Z,19.17
2019-02-28T06:37:28.487Z,21.53
2019-02-28T06:39:58.651Z,24.00
2019-02-28T06:42:26.413Z,21.70
2019-02-28T06:44:54.319Z,17.63
2019-02-28T06:47:22.264Z,11.30
2019-02-28T06:49:50.240Z,10.33
2019-02-28T06:52:18.087Z,9.50
2019-02-28T06:54:46.025Z,9.53
2019-02-28T06:57:14.082Z,10.97
2019-02-28T06:59:42.276Z,12.07
2019-02-28T07:02:10.212Z,10.77
2019-02-28T07:04:38.182Z,9.37
2019-02-28T07:07:07.348Z,10.93
2019-02-28T07:09:36.452Z,10.53
2019-02-28T07:12:05.159Z,10.90
2019-02-28T07:14:49.348Z,10.87
2019-02-28T07:17:17.578Z,15.73
2019-02-28T07:19:45.513Z,19.13
2019-02-28T07:22:19.191Z,19.10
2019-02-28T07:24:43.236Z,17.33
2019-02-28T07:27:11.125Z,13.67
2019-02-28T07:29:39.104Z,12.93
2019-02-28T07:32:07.050Z,13.83
2019-02-28T07:34:35.419Z,16.87
2019-02-28T07:37:03.268Z,17.03
2019-02-28T07:39:31.186Z,18.13
2019-02-28T07:42:02.308Z,17.73
2019-02-28T07:44:28.811Z,19.17
2019-02-28T07:46:56.670Z,20.60
2019-02-28T07:49:25.834Z,20.90
2019-02-28T07:51:56.970Z,20.77
2019-02-28T07:54:24.058Z,21.33
2019-02-28T07:56:52.030Z,23.17
2019-02-28T07:59:20.459Z,25.50
2019-02-28T08:01:50.743Z,23.87
2019-02-28T08:04:19.188Z,27.10
2019-02-28T08:06:47.314Z,28.23
2019-02-28T08:09:23.115Z,29.83
2019-02-28T08:11:51.578Z,30.90
2019-02-28T08:14:30.363Z,32.80
2019-02-28T08:16:58.271Z,32.00
2019-02-28T08:19:27.232Z,27.73
2019-02-28T08:21:55.934Z,48.73
2019-02-28T08:24:23.894Z,83.17
2019-02-28T08:26:53.503Z,80.57
2019-02-28T08:29:21.723Z,58.47
2019-02-28T08:31:49.730Z,41.80
2019-02-28T08:34:20.579Z,32.83
2019-02-28T08:36:47.594Z,26.60
2019-02-28T08:39:16.771Z,25.50
2019-02-28T08:41:44.707Z,23.80
2019-02-28T08:44:12.743Z,22.17
2019-02-28T08:46:43.512Z,22.30
2019-02-28T08:49:10.675Z,23.17
2019-02-28T08:51:38.594Z,23.10
2019-02-28T08:54:06.459Z,24.60
2019-02-28T08:56:34.381Z,25.30
2019-02-28T08:59:11.387Z,29.63
2019-02-28T09:01:32.191Z,29.73
2019-02-28T09:04:05.068Z,28.47
2019-02-28T09:06:29.986Z,26.57
2019-02-28T09:08:59.901Z,23.93
2019-02-28T09:11:27.815Z,25.77
2019-02-28T09:13:55.889Z,24.53
2019-02-28T09:16:23.774Z,22.83
2019-02-28T09:18:51.683Z,24.03
2019-02-28T09:21:19.658Z,23.57
2019-02-28T09:23:47.598Z,23.23
2019-02-28T09:26:15.643Z,23.60
2019-02-28T09:28:44.456Z,23.67
2019-02-28T09:31:13.334Z,24.27
2019-02-28T09:33:41.282Z,22.57
2019-02-28T09:36:09.202Z,22.77
2019-02-28T09:38:37.157Z,23.20
2019-02-28T09:41:05.447Z,26.53
2019-02-28T09:43:33.430Z,29.40
2019-02-28T09:46:01.503Z,27.33
2019-02-28T09:48:30.677Z,24.70
2019-02-28T09:50:59.184Z,25.43
2019-02-28T09:53:27.215Z,27.77
2019-02-28T09:55:55.105Z,31.17
2019-02-28T09:58:22.971Z,31.77
2019-02-28T10:00:51.013Z,31.93
2019-02-28T10:03:19.582Z,29.37
2019-02-28T10:05:47.571Z,29.93
2019-02-28T10:08:15.803Z,35.77
2019-02-28T10:10:43.665Z,34.40
2019-02-28T10:13:14.584Z,34.33
2019-02-28T10:15:42.479Z,35.47
2019-02-28T10:18:10.464Z,36.40
2019-02-28T10:20:38.480Z,35.60
2019-02-28T10:23:06.347Z,36.03
2019-02-28T10:25:34.247Z,40.87
2019-02-28T10:28:02.894Z,39.00
2019-02-28T10:30:32.410Z,39.10
2019-02-28T10:33:01.176Z,40.57
2019-02-28T10:35:29.242Z,39.27
2019-02-28T10:37:58.387Z,40.00
2019-02-28T10:40:27.339Z,39.07
2019-02-28T10:42:55.622Z,40.07
2019-02-28T10:45:24.031Z,37.20
2019-02-28T10:47:52.023Z,39.20
2019-02-28T10:50:21.691Z,39.20
2019-02-28T10:52:50.072Z,40.90
2019-02-28T10:55:19.469Z,42.53
2019-02-28T10:57:48.404Z,40.00
2019-02-28T11:00:20.189Z,39.60
2019-02-28T11:02:50.469Z,40.20
2019-02-28T11:05:22.496Z,42.70
2019-02-28T11:07:50.785Z,42.20
2019-02-28T11:10:19.339Z,42.07
2019-02-28T11:12:47.365Z,39.63
2019-02-28T11:15:37.886Z,41.90
2019-02-28T11:18:09.774Z,41.87
2019-02-28T11:20:35.963Z,41.90
2019-02-28T11:23:04.592Z,41.80
2019-02-28T11:25:35.575Z,42.23
2019-02-28T11:28:02.598Z,42.57
2019-02-28T11:30:30.788Z,42.50
2019-02-28T11:33:02.979Z,42.57
2019-02-28T11:35:29.578Z,42.77
2019-02-28T11:37:57.753Z,41.40
2019-02-28T11:40:27.642Z,42.37
2019-02-28T11:42:55.651Z,41.53
2019-02-28T11:45:25.496Z,42.10
2019-02-28T11:47:54.850Z,40.73
2019-02-28T11:50:23.234Z,42.27
2019-02-28T11:52:51.337Z,43.43
2019-02-28T11:55:20.378Z,42.73
2019-02-28T11:57:49.465Z,42.27
2019-02-28T12:00:20.287Z,41.43
2019-02-28T12:02:53.245Z,41.63
2019-02-28T12:05:18.495Z,41.10
2019-02-28T12:07:46.583Z,40.23
2019-02-28T12:10:14.523Z,41.57
2019-02-28T12:12:44.717Z,42.10
2019-02-28T12:15:49.255Z,41.30
2019-02-28T12:18:16.590Z,39.63
2019-02-28T12:20:44.555Z,42.03
2019-02-28T12:23:12.552Z,41.60
2019-02-28T12:25:42.770Z,41.17
2019-02-28T12:28:10.175Z,40.63
2019-02-28T12:30:40.221Z,40.20
2019-02-28T12:33:08.155Z,41.00
2019-02-28T12:35:40.285Z,42.80
2019-02-28T12:38:06.279Z,42.83
2019-02-28T12:40:34.390Z,43.20
2019-02-28T12:43:05.290Z,42.10
2019-02-28T12:45:33.790Z,38.53
2019-02-28T12:48:01.768Z,39.30
2019-02-28T12:50:30.399Z,38.13
2019-02-28T12:52:58.423Z,36.17
2019-02-28T12:55:26.394Z,33.30
2019-02-28T12:57:54.855Z,31.90
2019-02-28T13:00:26.721Z,28.53
2019-02-28T13:02:54.790Z,27.43
2019-02-28T13:05:23.083Z,23.97
2019-02-28T13:07:51.047Z,23.40
2019-02-28T13:10:19.475Z,22.83
2019-02-28T13:12:48.813Z,23.33
2019-02-28T13:15:51.721Z,25.57
2019-02-28T13:18:18.608Z,23.87
2019-02-28T13:20:46.577Z,22.30
2019-02-28T13:23:16.975Z,19.67
2019-02-28T13:25:44.687Z,21.87
2019-02-28T13:28:12.641Z,22.80
2019-02-28T13:30:49.007Z,24.60
2019-02-28T13:33:11.022Z,22.40
2019-02-28T13:35:45.228Z,21.57
2019-02-28T13:38:17.497Z,25.93
2019-02-28T13:40:44.327Z,21.57
2019-02-28T13:43:10.845Z,21.93
2019-02-28T13:45:38.743Z,22.43
2019-02-28T13:48:06.753Z,24.67
2019-02-28T13:50:34.912Z,21.30
2019-02-28T13:53:17.028Z,21.67
2019-02-28T13:55:32.950Z,20.37
2019-02-28T13:58:01.467Z,19.37
2019-02-28T14:00:29.814Z,18.03
2019-02-28T14:02:59.572Z,17.57
2019-02-28T14:05:27.525Z,18.17
2019-02-28T14:07:55.661Z,20.37
2019-02-28T14:10:24.571Z,18.00
2019-02-28T14:12:53.286Z,16.83
2019-02-28T14:16:05.584Z,15.90
2019-02-28T14:18:32.314Z,15.17
2019-02-28T14:21:03.182Z,15.03
2019-02-28T14:23:30.139Z,15.13
2019-02-28T14:25:58.070Z,14.37
2019-02-28T14:28:26.251Z,15.33
2019-02-28T14:30:54.371Z,15.70
2019-02-28T14:33:24.127Z,16.00
2019-02-28T14:35:52.219Z,19.93
2019-02-28T14:38:20.132Z,16.70
2019-02-28T14:40:49.618Z,18.83
2019-02-28T14:43:19.613Z,15.97
2019-02-28T14:45:47.597Z,17.10
2019-02-28T14:48:15.722Z,20.10
2019-02-28T14:50:43.746Z,18.93
2019-02-28T14:53:14.430Z,18.33
2019-02-28T14:55:41.459Z,17.57
2019-02-28T14:58:09.369Z,19.17
2019-02-28T15:00:38.992Z,16.93
2019-02-28T15:03:07.679Z,17.80
2019-02-28T15:05:36.479Z,16.80
2019-02-28T15:08:04.513Z,14.90
2019-02-28T15:10:34.224Z,14.13
2019-02-28T15:13:04.664Z,12.03
2019-02-28T15:16:15.585Z,9.17
2019-02-28T15:18:44.344Z,9.77
2019-02-28T15:21:11.631Z,8.90
2019-02-28T15:23:39.599Z,9.53
2019-02-28T15:26:07.500Z,9.20
2019-02-28T15:28:35.563Z,9.00
2019-02-28T15:31:05.716Z,8.63
2019-02-28T15:33:33.418Z,9.60
2019-02-28T15:36:01.431Z,9.23
2019-02-28T15:38:29.628Z,10.03
2019-02-28T15:40:58.851Z,9.17
2019-02-28T15:43:27.340Z,8.77
2019-02-28T15:45:55.228Z,8.37
2019-02-28T15:48:23.312Z,8.30
2019-02-28T15:50:52.533Z,8.47
2019-02-28T15:53:20.562Z,7.97
2019-02-28T15:55:48.590Z,9.57
2019-02-28T15:58:16.749Z,9.53
2019-02-28T16:00:45.177Z,9.33
2019-02-28T16:03:13.534Z,15.00
2019-02-28T16:05:44.190Z,7.90
2019-02-28T16:08:12.372Z,8.40
2019-02-28T16:10:40.342Z,8.80
2019-02-28T16:13:08.206Z,9.37
2019-02-28T16:16:21.399Z,9.30
2019-02-28T16:18:47.325Z,7.80
2019-02-28T16:21:15.804Z,8.87
2019-02-28T16:23:43.694Z,8.00
2019-02-28T16:26:12.088Z,8.57
2019-02-28T16:28:42.604Z,8.43
2019-02-28T16:31:10.362Z,8.87
2019-02-28T16:33:38.298Z,9.50
2019-02-28T16:36:06.290Z,9.50
2019-02-28T16:38:34.207Z,8.23
2019-02-28T16:41:02.083Z,8.63
2019-02-28T16:43:30.122Z,8.67
2019-02-28T16:45:58.034Z,8.50
2019-02-28T16:48:25.946Z,7.63
2019-02-28T16:50:56.777Z,7.20
2019-02-28T16:53:23.863Z,9.00
2019-02-28T16:55:51.828Z,8.37
2019-02-28T16:58:21.830Z,8.00
2019-02-28T17:00:49.678Z,7.23
2019-02-28T17:03:17.710Z,7.20
2019-02-28T17:05:45.795Z,7.17
2019-02-28T17:08:15.599Z,7.30
2019-02-28T17:10:44.233Z,8.23
2019-02-28T17:13:20.399Z,8.13
2019-02-28T17:16:51.476Z,7.77
2019-02-28T17:19:19.463Z,7.10
2019-02-28T17:21:48.668Z,7.50
2019-02-28T17:24:17.683Z,7.37
2019-02-28T17:27:12.294Z,7.50
2019-02-28T17:30:06.383Z,8.27
2019-02-28T17:32:35.639Z,9.10
2019-02-28T17:35:04.360Z,8.90
2019-02-28T17:37:32.534Z,8.70
2019-02-28T17:40:01.153Z,8.20
2019-02-28T17:42:29.513Z,8.60
2019-02-28T17:45:30.415Z,8.77
2019-02-28T17:49:03.784Z,8.07
2019-02-28T17:52:12.511Z,10.43
2019-02-28T17:55:24.678Z,8.70
2019-02-28T17:58:36.889Z,13.33
2019-02-28T18:01:53.509Z,14.23
2019-02-28T18:05:05.510Z,19.40
2019-02-28T18:08:27.451Z,27.33
2019-02-28T18:11:30.965Z,22.53
2019-02-28T18:14:48.752Z,22.03
2019-02-28T18:17:48.183Z,21.67
2019-02-28T18:20:56.463Z,22.50
2019-02-28T18:24:07.130Z,22.23
2019-02-28T18:26:53.459Z,20.77
2019-02-28T18:30:09.228Z,16.77
2019-02-28T18:32:39.550Z,26.10
2019-02-28T18:35:08.103Z,53.97
2019-02-28T18:37:37.996Z,39.80
2019-02-28T18:40:06.579Z,34.53
2019-02-28T18:42:35.139Z,31.07
2019-02-28T18:45:04.510Z,31.93
2019-02-28T18:47:35.903Z,28.83
2019-02-28T18:50:03.867Z,28.83
2019-02-28T18:52:32.612Z,32.07
2019-02-28T18:55:06.175Z,27.70
2019-02-28T18:57:32.554Z,24.13
2019-02-28T19:00:03.363Z,20.73
2019-02-28T19:02:32.037Z,19.50
2019-02-28T19:05:00.814Z,23.33
2019-02-28T19:07:29.529Z,25.70
2019-02-28T19:09:58.325Z,29.50
2019-02-28T19:12:27.132Z,30.40
2019-02-28T19:15:27.587Z,28.80
2019-02-28T19:17:55.285Z,26.43
2019-02-28T19:20:24.543Z,23.57
2019-02-28T19:22:53.342Z,23.90
2019-02-28T19:25:22.220Z,23.67
2019-02-28T19:27:51.470Z,22.47
2019-02-28T19:30:20.191Z,23.47
2019-02-28T19:32:49.108Z,21.30
2019-02-28T19:35:18.225Z,19.33
2019-02-28T19:37:46.914Z,23.10
2019-02-28T19:40:15.559Z,27.70
2019-02-28T19:42:43.631Z,22.87
2019-02-28T19:45:13.212Z,27.20
2019-02-28T19:47:41.448Z,30.13
2019-02-28T19:50:10.323Z,36.07
2019-02-28T19:52:39.990Z,37.37
2019-02-28T19:55:10.199Z,34.97
2019-02-28T19:57:39.601Z,35.03
2019-02-28T20:00:10.593Z,35.10
2019-02-28T20:02:39.876Z,38.07
2019-02-28T20:05:08.139Z,31.97
2019-02-28T20:07:37.743Z,28.53
2019-02-28T20:10:07.991Z,31.90
2019-02-28T20:12:38.219Z,34.73
2019-02-28T20:15:38.918Z,45.47
2019-02-28T20:18:06.633Z,51.10
2019-02-28T20:20:35.343Z,36.17
2019-02-28T20:23:04.262Z,40.00
2019-02-28T20:25:33.158Z,30.07
2019-02-28T20:28:02.049Z,26.33
2019-02-28T20:30:30.659Z,25.60
2019-02-28T20:32:59.194Z,22.77
2019-02-28T20:35:27.431Z,19.73
2019-02-28T20:37:55.684Z,18.73
2019-02-28T20:40:24.351Z,26.53
2019-02-28T20:42:52.524Z,25.57
2019-02-28T20:45:20.807Z,22.23
2019-02-28T20:47:48.944Z,21.30
2019-02-28T20:50:25.766Z,18.30
2019-02-28T20:52:55.070Z,19.20
2019-02-28T20:55:24.066Z,15.40
2019-02-28T20:57:52.299Z,15.73
2019-02-28T21:00:24.224Z,15.83
2019-02-28T21:02:52.162Z,19.57
2019-02-28T21:05:20.395Z,20.13
2019-02-28T21:07:48.495Z,19.83
2019-02-28T21:10:16.539Z,19.70
2019-02-28T21:12:44.566Z,18.47
2019-02-28T21:15:58.974Z,18.33
2019-02-28T21:18:25.010Z,17.30
2019-02-28T21:20:53.038Z,17.33
2019-02-28T21:23:20.983Z,16.10
2019-02-28T21:26:13.426Z,15.93
2019-02-28T21:28:41.282Z,16.30
2019-02-28T21:31:09.346Z,16.97
2019-02-28T21:33:37.481Z,16.87
2019-02-28T21:36:05.620Z,16.27
2019-02-28T21:38:34.218Z,16.83
2019-02-28T21:41:02.939Z,17.17
2019-02-28T21:43:30.990Z,16.67
2019-02-28T21:45:58.953Z,17.23
2019-02-28T21:48:26.830Z,19.47
2019-02-28T21:50:55.475Z,20.03
2019-02-28T21:53:24.039Z,16.90
2019-02-28T21:55:52.667Z,16.03
2019-02-28T21:58:20.642Z,15.63
2019-02-28T22:00:49.268Z,17.17
2019-02-28T22:03:17.314Z,19.70
2019-02-28T22:05:46.219Z,18.20
2019-02-28T22:08:14.354Z,15.53
2019-02-28T22:10:43.514Z,13.93
2019-02-28T22:13:11.950Z,14.43
2019-02-28T22:16:23.366Z,14.20
2019-02-28T22:18:50.488Z,15.13
2019-02-28T22:21:18.587Z,15.87
2019-02-28T22:23:48.216Z,17.20
2019-02-28T22:26:17.252Z,17.23
2019-02-28T22:28:45.882Z,17.17
2019-02-28T22:31:51.591Z,18.07
2019-02-28T22:34:31.307Z,17.20
2019-02-28T22:36:59.258Z,15.87
2019-02-28T22:39:27.150Z,13.80
2019-02-28T22:41:55.110Z,13.60
2019-02-28T22:44:23.026Z,13.10
2019-02-28T22:46:51.117Z,14.57
2019-02-28T22:49:19.022Z,13.57
2019-02-28T22:51:47.222Z,12.77
2019-02-28T22:54:15.182Z,13.70
2019-02-28T22:56:43.250Z,13.50
2019-02-28T22:59:11.130Z,12.80
2019-02-28T23:01:39.235Z,12.77
2019-02-28T23:04:07.252Z,13.17
2019-02-28T23:06:35.118Z,12.60
2019-02-28T23:09:04.475Z,12.90
2019-02-28T23:11:32.555Z,11.07
2019-02-28T23:14:00.762Z,11.67
2019-02-28T23:16:28.867Z,12.20
2019-02-28T23:18:56.875Z,11.33
2019-02-28T23:21:24.957Z,12.37
2019-02-28T23:23:52.980Z,11.77
2019-02-28T23:26:25.411Z,11.90
2019-02-28T23:29:06.938Z,10.87
2019-02-28T23:32:06.726Z,10.90
2019-02-28T23:34:37.575Z,12.37
2019-02-28T23:37:05.470Z,11.77
2019-02-28T23:39:33.664Z,11.67
2019-02-28T23:42:01.720Z,11.77
2019-02-28T23:44:29.778Z,11.80
2019-02-28T23:46:57.711Z,12.10
2019-02-28T23:49:25.741Z,12.00
2019-02-28T23:51:53.955Z,12.17
2019-02-28T23:54:22.154Z,12.47
2019-02-28T23:56:50.208Z,11.70
2019-02-28T23:59:18.362Z,11.73
